createdAt,value
2022-09-23T00:01:03.203Z,5.40
2022-09-23T00:04:05.712Z,5.93
2022-09-23T00:07:07.958Z,5.15
2022-09-23T00:10:10.830Z,5.28
2022-09-23T00:13:12.902Z,4.87
2022-09-23T00:16:19.085Z,5.43
2022-09-23T00:19:21.617Z,6.10
2022-09-23T00:22:24.148Z,4.97
2022-09-23T00:25:29.716Z,5.80
2022-09-23T00:28:33.088Z,4.85
2022-09-23T00:31:35.200Z,7.00
2022-09-23T00:34:37.645Z,5.37
2022-09-23T00:37:39.759Z,5.18
2022-09-23T00:40:46.144Z,7.15
2022-09-23T00:43:59.836Z,6.15
2022-09-23T00:47:02.211Z,5.82
2022-09-23T00:50:26.238Z,6.00
2022-09-23T00:53:28.879Z,5.32
2022-09-23T00:56:32.439Z,6.55
2022-09-23T00:59:36.043Z,5.65
2022-09-23T01:02:38.214Z,6.87
2022-09-23T01:05:42.493Z,5.60
2022-09-23T01:08:47.062Z,6.95
2022-09-23T01:12:05.879Z,5.78
2022-09-23T01:15:21.654Z,5.43
2022-09-23T01:18:46.967Z,6.22
2022-09-23T01:22:05.001Z,6.53
2022-09-23T01:25:26.749Z,6.15
2022-09-23T01:28:34.806Z,6.35
2022-09-23T01:31:43.169Z,7.25
2022-09-23T01:35:07.018Z,5.93
2022-09-23T01:38:34.317Z,6.68
2022-09-23T01:41:54.636Z,6.35
2022-09-23T01:45:07.088Z,5.97
2022-09-23T01:48:18.414Z,6.37
2022-09-23T01:51:32.931Z,6.50
2022-09-23T01:54:41.141Z,6.37
2022-09-23T01:57:54.305Z,6.65
2022-09-23T02:01:02.121Z,5.97
2022-09-23T02:04:17.423Z,6.80
2022-09-23T02:07:22.420Z,6.00
2022-09-23T02:10:37.389Z,5.85
2022-09-23T02:13:53.721Z,6.43
2022-09-23T02:17:03.405Z,6.60
2022-09-23T02:20:07.339Z,6.18
2022-09-23T02:23:16.832Z,6.03
2022-09-23T02:26:37.406Z,5.22
2022-09-23T02:29:42.564Z,5.60
2022-09-23T02:33:04.458Z,5.60
2022-09-23T02:36:13.734Z,5.47
2022-09-23T02:39:17.885Z,5.78
2022-09-23T02:42:30.195Z,6.32
2022-09-23T02:45:33.724Z,4.93
2022-09-23T02:48:41.289Z,5.00
2022-09-23T02:51:44.575Z,4.93
2022-09-23T02:54:47.163Z,5.10
2022-09-23T02:57:49.255Z,5.07
2022-09-23T03:01:12.224Z,5.15
2022-09-23T03:04:23.706Z,5.62
2022-09-23T03:07:41.100Z,4.82
2022-09-23T03:11:05.569Z,5.18
2022-09-23T03:14:28.760Z,4.85
2022-09-23T03:18:09.570Z,4.90
2022-09-23T03:21:23.481Z,4.90
2022-09-23T03:24:27.467Z,6.03
2022-09-23T03:27:32.388Z,5.25
2022-09-23T03:30:36.067Z,5.87
2022-09-23T03:33:41.911Z,5.60
2022-09-23T03:36:57.685Z,5.05
2022-09-23T03:40:04.078Z,5.87
2022-09-23T03:43:06.381Z,5.05
2022-09-23T03:46:08.923Z,6.65
2022-09-23T03:49:18.266Z,6.00
2022-09-23T03:52:23.204Z,5.90
2022-09-23T03:55:25.486Z,6.12
2022-09-23T03:58:27.867Z,6.25
2022-09-23T04:01:29.960Z,6.37
2022-09-23T04:04:34.295Z,6.55
2022-09-23T04:07:36.471Z,6.72
2022-09-23T04:10:41.902Z,6.53
2022-09-23T04:13:44.040Z,6.78
2022-09-23T04:16:48.823Z,6.50
2022-09-23T04:19:50.925Z,8.10
2022-09-23T04:22:53.307Z,6.22
2022-09-23T04:25:55.654Z,5.87
2022-09-23T04:28:58.348Z,6.28
2022-09-23T04:32:00.482Z,6.97
2022-09-23T04:35:03.105Z,6.87
2022-09-23T04:38:05.998Z,6.90
2022-09-23T04:41:09.818Z,7.20
2022-09-23T04:44:13.053Z,6.70
2022-09-23T04:47:16.090Z,5.37
2022-09-23T04:50:18.211Z,7.22
2022-09-23T04:53:21.905Z,5.82
2022-09-23T04:56:28.058Z,6.65
2022-09-23T04:59:30.481Z,6.22
2022-09-23T05:02:34.139Z,6.22
2022-09-23T05:05:36.602Z,6.50
2022-09-23T05:08:38.736Z,6.25
2022-09-23T05:11:41.158Z,6.65
2022-09-23T05:14:43.217Z,6.65
2022-09-23T05:17:45.693Z,6.25
2022-09-23T05:20:53.769Z,7.50
2022-09-23T05:23:59.037Z,6.90
2022-09-23T05:27:01.869Z,7.50
2022-09-23T05:35:49.802Z,7.10
2022-09-23T05:38:56.501Z,6.53
2022-09-23T05:42:00.149Z,6.43
2022-09-23T05:45:02.734Z,6.75
2022-09-23T05:48:05.040Z,6.15
2022-09-23T05:51:12.941Z,7.23
2022-09-23T05:54:15.178Z,5.37
2022-09-23T05:57:17.551Z,6.85
2022-09-23T06:00:20.024Z,6.93
2022-09-23T06:03:23.840Z,7.60
2022-09-23T06:09:36.344Z,6.12
2022-09-23T06:12:38.986Z,6.82
2022-09-23T06:15:43.646Z,6.55
2022-09-23T06:18:46.895Z,7.40
2022-09-23T06:21:49.633Z,8.02
2022-09-23T06:24:51.941Z,8.43
2022-09-23T06:27:57.375Z,7.33
2022-09-23T06:31:01.046Z,8.30
2022-09-23T06:34:11.525Z,7.43
2022-09-23T06:37:20.252Z,7.75
2022-09-23T06:40:23.824Z,7.37
2022-09-23T06:43:26.371Z,9.30
2022-09-23T06:46:29.343Z,8.52
2022-09-23T06:49:33.126Z,8.77
2022-09-23T06:52:35.783Z,7.00
2022-09-23T06:55:37.975Z,5.97
2022-09-23T06:58:41.213Z,7.05
2022-09-23T07:01:45.269Z,7.12
2022-09-23T07:04:48.059Z,7.55
2022-09-23T07:07:50.280Z,6.95
2022-09-23T07:10:53.949Z,7.00
2022-09-23T07:13:56.107Z,6.75
2022-09-23T07:16:59.970Z,6.93
2022-09-23T07:23:04.489Z,5.93
2022-09-23T07:26:08.688Z,5.75
2022-09-23T07:29:14.074Z,5.65
2022-09-23T07:32:16.893Z,5.53
2022-09-23T07:35:19.700Z,5.80
2022-09-23T07:38:30.359Z,5.80
2022-09-23T07:41:34.184Z,5.43
2022-09-23T07:44:36.505Z,6.15
2022-09-23T07:47:41.951Z,5.93
2022-09-23T07:50:44.086Z,6.82
2022-09-23T07:53:51.418Z,5.80
2022-09-23T07:56:53.543Z,5.28
2022-09-23T07:59:56.020Z,6.00
2022-09-23T08:02:58.210Z,5.37
2022-09-23T08:06:19.055Z,5.87
2022-09-23T08:09:24.033Z,5.93
2022-09-23T08:12:27.242Z,5.87
2022-09-23T08:15:31.760Z,5.65
2022-09-23T08:18:34.369Z,5.68
2022-09-23T08:21:39.525Z,6.00
2022-09-23T08:24:42.727Z,5.10
2022-09-23T08:27:45.318Z,6.80
2022-09-23T08:30:50.855Z,6.43
2022-09-23T08:33:58.190Z,6.32
2022-09-23T08:37:00.634Z,6.25
2022-09-23T08:40:02.816Z,6.25
2022-09-23T08:43:25.570Z,6.30
2022-09-23T08:46:42.320Z,7.95
2022-09-23T08:50:05.126Z,6.97
2022-09-23T08:53:25.275Z,6.62
2022-09-23T08:56:29.636Z,6.90
2022-09-23T08:59:42.137Z,6.28
2022-09-23T09:02:44.862Z,5.78
2022-09-23T09:05:54.207Z,5.60
2022-09-23T09:09:00.988Z,5.70
2022-09-23T09:12:12.291Z,5.43
2022-09-23T09:15:14.682Z,5.70
2022-09-23T09:18:21.352Z,6.15
2022-09-23T09:21:37.240Z,6.53
2022-09-23T09:24:40.279Z,5.45
2022-09-23T09:27:43.148Z,6.07
2022-09-23T09:30:50.887Z,5.97
2022-09-23T09:34:03.027Z,6.12
2022-09-23T09:37:22.150Z,6.57
2022-09-23T09:40:25.575Z,5.65
2022-09-23T09:43:28.034Z,6.00
2022-09-23T09:46:55.133Z,5.73
2022-09-23T09:50:03.465Z,5.93
2022-09-23T09:53:25.454Z,6.40
2022-09-23T09:56:38.069Z,5.15
2022-09-23T09:59:44.106Z,6.12
2022-09-23T10:02:47.399Z,6.28
2022-09-23T10:09:01.623Z,5.68
2022-09-23T10:12:19.179Z,5.85
2022-09-23T10:15:44.458Z,5.40
2022-09-23T10:18:47.975Z,5.40
2022-09-23T10:21:59.915Z,6.12
2022-09-23T10:25:09.905Z,4.70
2022-09-23T10:28:53.092Z,5.25
2022-09-23T10:32:40.545Z,5.75
2022-09-23T10:36:03.464Z,4.85
2022-09-23T10:39:40.042Z,5.78
2022-09-23T10:43:17.131Z,6.35
2022-09-23T10:46:45.921Z,4.68
2022-09-23T10:50:07.627Z,5.60
2022-09-23T10:53:24.052Z,5.12
2022-09-23T10:57:21.511Z,4.43
2022-09-23T11:00:47.477Z,5.22
2022-09-23T11:04:22.000Z,5.50
2022-09-23T11:07:51.158Z,4.62
2022-09-23T11:11:08.927Z,5.37
2022-09-23T11:14:31.488Z,4.65
2022-09-23T11:17:59.912Z,4.78
2022-09-23T11:21:14.098Z,4.40
2022-09-23T11:24:28.672Z,3.75
2022-09-23T11:27:52.406Z,5.00
2022-09-23T11:34:31.900Z,3.40
2022-09-23T11:37:40.876Z,4.25
2022-09-23T11:40:46.642Z,4.20
2022-09-23T11:43:55.912Z,3.80
2022-09-23T11:47:26.207Z,4.25
2022-09-23T11:50:37.340Z,4.30
2022-09-23T11:53:51.786Z,5.25
2022-09-23T11:57:00.486Z,4.95
2022-09-23T12:00:18.701Z,5.55
2022-09-23T12:03:41.580Z,4.57
2022-09-23T12:06:52.663Z,4.12
2022-09-23T12:10:05.766Z,5.30
2022-09-23T12:13:19.236Z,4.27
2022-09-23T12:16:38.351Z,4.95
2022-09-23T12:19:47.560Z,4.55
2022-09-23T12:22:58.073Z,4.45
2022-09-23T12:26:06.674Z,4.05
2022-09-23T12:29:14.754Z,4.40
2022-09-23T12:32:20.077Z,4.45
2022-09-23T12:35:32.084Z,3.92
2022-09-23T12:38:41.448Z,4.60
2022-09-23T12:41:51.523Z,3.50
2022-09-23T12:45:21.441Z,4.55
2022-09-23T12:48:44.162Z,4.62
2022-09-23T12:52:11.853Z,4.15
2022-09-23T12:55:26.427Z,4.05
2022-09-23T12:58:56.896Z,3.90
2022-09-23T13:02:23.105Z,4.32
2022-09-23T13:05:46.782Z,4.12
2022-09-23T13:08:49.922Z,4.28
2022-09-23T13:11:53.417Z,3.75
2022-09-23T13:15:00.725Z,3.28
2022-09-23T13:18:21.400Z,3.83
2022-09-23T13:21:42.982Z,4.35
2022-09-23T13:24:52.458Z,3.80
2022-09-23T13:27:57.689Z,3.60
2022-09-23T13:31:06.166Z,4.00
2022-09-23T13:34:13.747Z,4.22
2022-09-23T13:37:23.135Z,4.12
2022-09-23T13:40:28.852Z,4.15
2022-09-23T13:43:48.021Z,3.65
2022-09-23T13:46:54.300Z,2.75
2022-09-23T13:49:57.133Z,3.25
2022-09-23T13:53:08.555Z,3.40
2022-09-23T13:56:15.810Z,4.50
2022-09-23T13:59:24.709Z,3.72
2022-09-23T14:02:29.990Z,3.78
2022-09-23T14:05:38.407Z,4.07
2022-09-23T14:08:47.947Z,3.15
2022-09-23T14:11:54.905Z,3.78
2022-09-23T14:14:57.519Z,2.75
2022-09-23T14:18:06.936Z,2.65
2022-09-23T14:21:37.920Z,3.70
2022-09-23T14:24:40.522Z,3.35
2022-09-23T14:27:44.626Z,3.47
2022-09-23T14:30:48.087Z,3.62
2022-09-23T14:33:50.398Z,2.72
2022-09-23T14:37:28.362Z,3.27
2022-09-23T14:40:48.920Z,3.72
2022-09-23T14:44:01.185Z,3.33
2022-09-23T14:47:03.545Z,2.72
2022-09-23T14:50:25.248Z,3.40
2022-09-23T14:53:33.354Z,3.25
2022-09-23T14:56:41.836Z,6.47
2022-09-23T14:59:54.587Z,3.58
2022-09-23T15:03:03.102Z,3.67
2022-09-23T15:06:10.431Z,3.30
2022-09-23T15:09:39.031Z,3.45
2022-09-23T15:12:42.741Z,3.55
2022-09-23T15:15:45.763Z,3.17
2022-09-23T15:18:54.403Z,3.70
2022-09-23T15:21:57.173Z,3.70
2022-09-23T15:25:16.725Z,3.08
2022-09-23T15:28:19.526Z,2.53
2022-09-23T15:31:27.221Z,2.30
2022-09-23T15:34:31.942Z,2.60
2022-09-23T15:37:36.442Z,2.20
2022-09-23T15:40:40.317Z,2.17
2022-09-23T15:46:52.046Z,3.00
2022-09-23T15:49:54.583Z,2.83
2022-09-23T15:52:57.265Z,2.87
2022-09-23T15:56:00.490Z,3.03
2022-09-23T15:59:03.055Z,2.70
2022-09-23T16:02:13.449Z,2.83
2022-09-23T16:05:34.806Z,4.43
2022-09-23T16:08:37.598Z,3.50
2022-09-23T16:11:44.516Z,3.03
2022-09-23T16:14:46.657Z,3.25
2022-09-23T16:17:50.060Z,3.17
2022-09-23T16:20:52.328Z,3.25
2022-09-23T16:23:57.310Z,3.12
2022-09-23T16:27:03.483Z,3.08
2022-09-23T16:30:06.927Z,3.37
2022-09-23T16:33:09.057Z,4.70
2022-09-23T16:36:21.118Z,3.45
2022-09-23T16:39:23.399Z,3.72
2022-09-23T16:42:26.359Z,3.62
2022-09-23T16:45:28.787Z,3.97
2022-09-23T16:48:31.329Z,3.30
2022-09-23T16:51:38.286Z,3.62
2022-09-23T16:54:42.209Z,3.60
2022-09-23T16:57:44.403Z,3.87
2022-09-23T17:01:05.512Z,4.28
2022-09-23T17:04:08.738Z,5.00
2022-09-23T17:07:12.152Z,4.53
2022-09-23T17:10:17.122Z,3.40
2022-09-23T17:13:19.592Z,3.97
2022-09-23T17:16:32.948Z,4.22
2022-09-23T17:22:39.419Z,3.90
2022-09-23T17:25:47.795Z,4.00
2022-09-23T17:28:51.402Z,4.35
2022-09-23T17:31:54.379Z,3.90
2022-09-23T17:34:57.383Z,4.47
2022-09-23T17:37:59.803Z,4.78
2022-09-23T17:41:02.618Z,4.85
2022-09-23T17:44:05.391Z,4.62
2022-09-23T17:47:07.500Z,3.97
2022-09-23T17:50:10.178Z,4.60
2022-09-23T17:53:16.832Z,3.97
2022-09-23T17:56:21.982Z,4.03
2022-09-23T17:59:36.461Z,4.43
2022-09-23T18:02:41.104Z,5.55
2022-09-23T18:05:43.647Z,4.57
2022-09-23T18:08:47.773Z,4.95
2022-09-23T18:11:50.524Z,4.68
2022-09-23T18:15:01.832Z,5.03
2022-09-23T18:18:05.300Z,4.57
2022-09-23T18:21:07.750Z,5.70
2022-09-23T18:24:31.315Z,5.20
2022-09-23T18:27:34.453Z,5.50
2022-09-23T18:30:36.857Z,5.53
2022-09-23T18:33:39.244Z,5.82
2022-09-23T18:36:42.237Z,5.28
2022-09-23T18:39:44.809Z,5.32
2022-09-23T18:42:48.091Z,5.03
2022-09-23T18:46:05.181Z,5.57
2022-09-23T18:49:27.311Z,6.22
2022-09-23T18:52:29.459Z,6.12
2022-09-23T18:55:40.623Z,5.93
2022-09-23T18:58:50.351Z,7.00
2022-09-23T19:01:55.499Z,5.65
2022-09-23T19:04:58.265Z,5.65
2022-09-23T19:08:00.826Z,5.53
2022-09-23T19:11:05.300Z,6.53
2022-09-23T19:14:11.179Z,5.68
2022-09-23T19:17:13.779Z,5.25
2022-09-23T19:20:16.872Z,6.32
2022-09-23T19:23:20.594Z,6.50
2022-09-23T19:26:32.381Z,6.03
2022-09-23T19:29:34.495Z,6.28
2022-09-23T19:32:36.926Z,6.40
2022-09-23T19:35:47.616Z,7.18
2022-09-23T19:38:53.609Z,6.75
2022-09-23T19:41:55.961Z,7.30
2022-09-23T19:44:58.584Z,7.27
2022-09-23T19:48:02.071Z,7.47
2022-09-23T19:54:07.421Z,7.47
2022-09-23T19:57:09.938Z,7.65
2022-09-23T20:00:15.062Z,6.68
2022-09-23T20:03:18.294Z,7.62
2022-09-23T20:06:20.834Z,8.25
2022-09-23T20:09:23.334Z,6.53
2022-09-23T20:12:25.486Z,6.12
2022-09-23T20:15:29.027Z,6.78
2022-09-23T20:18:31.183Z,7.35
2022-09-23T20:21:34.286Z,7.05
2022-09-23T20:24:36.478Z,6.57
2022-09-23T20:27:39.608Z,7.07
2022-09-23T20:30:43.906Z,7.57
2022-09-23T20:33:57.294Z,7.40
2022-09-23T20:37:00.192Z,8.07
2022-09-23T20:40:03.280Z,6.70
2022-09-23T20:43:05.482Z,7.30
2022-09-23T20:46:09.108Z,7.45
2022-09-23T20:49:11.322Z,8.30
2022-09-23T20:52:16.415Z,7.37
2022-09-23T20:55:18.818Z,8.73
2022-09-23T20:58:27.075Z,9.60
2022-09-23T21:01:31.879Z,10.82
2022-09-23T21:04:35.029Z,9.18
2022-09-23T21:07:37.692Z,10.90
2022-09-23T21:10:41.452Z,11.32
2022-09-23T21:13:48.317Z,10.68
2022-09-23T21:16:51.150Z,11.65
2022-09-23T21:19:53.361Z,11.00
2022-09-23T21:22:57.204Z,10.93
2022-09-23T21:26:04.284Z,9.80
2022-09-23T21:29:07.373Z,11.45
2022-09-23T21:32:10.412Z,10.43
2022-09-23T21:35:12.996Z,12.05
2022-09-23T21:38:15.160Z,11.27
2022-09-23T21:41:18.065Z,11.23
2022-09-23T21:44:20.581Z,10.60
2022-09-23T21:47:23.476Z,10.23
2022-09-23T21:50:29.473Z,11.63
2022-09-23T21:53:33.665Z,9.52
2022-09-23T21:56:37.675Z,11.07
2022-09-23T21:59:40.302Z,9.60
2022-09-23T22:02:42.453Z,10.70
2022-09-23T22:05:44.897Z,9.32
2022-09-23T22:08:49.417Z,8.50
2022-09-23T22:12:09.946Z,8.60
2022-09-23T22:15:12.166Z,8.70
2022-09-23T22:18:14.620Z,8.02
2022-09-23T22:21:16.798Z,8.65
2022-09-23T22:24:20.193Z,8.35
2022-09-23T22:27:23.653Z,9.85
2022-09-23T22:30:44.675Z,9.07
2022-09-23T22:33:49.783Z,8.63
2022-09-23T22:36:52.196Z,8.25
2022-09-23T22:39:54.899Z,7.80
2022-09-23T22:42:57.636Z,9.38
2022-09-23T22:46:00.032Z,8.45
2022-09-23T22:49:02.578Z,9.27
2022-09-23T22:52:08.389Z,9.73
2022-09-23T22:55:11.846Z,8.73
2022-09-23T22:58:31.158Z,8.35
2022-09-23T23:01:35.634Z,8.25
2022-09-23T23:04:37.813Z,8.63
2022-09-23T23:07:41.149Z,8.93
2022-09-23T23:10:43.940Z,9.73
2022-09-23T23:13:46.397Z,9.13
2022-09-23T23:16:48.617Z,8.07
2022-09-23T23:19:51.309Z,7.20
2022-09-23T23:22:53.651Z,8.30
2022-09-23T23:25:56.140Z,7.80
2022-09-23T23:28:59.718Z,8.02
2022-09-23T23:32:02.350Z,8.40
2022-09-23T23:35:05.123Z,8.88
2022-09-23T23:38:07.895Z,8.50
2022-09-23T23:41:15.060Z,7.50
2022-09-23T23:44:17.630Z,7.57
2022-09-23T23:47:21.295Z,6.05
2022-09-23T23:50:23.871Z,7.12
2022-09-23T23:53:30.258Z,7.30
2022-09-23T23:56:32.787Z,7.05
2022-09-23T23:59:35.059Z,6.65
